createdAt,value
2022-08-31T00:00:38.626Z,64.64
2022-08-31T00:03:58.670Z,69.66
2022-08-31T00:07:00.216Z,65.90
2022-08-31T00:10:14.186Z,65.67
2022-08-31T00:13:16.425Z,66.03
2022-08-31T00:16:19.554Z,66.73
2022-08-31T00:19:21.302Z,64.42
2022-08-31T00:22:22.739Z,66.84
2022-08-31T00:25:24.411Z,65.87
2022-08-31T00:28:26.019Z,65.78
2022-08-31T00:31:27.587Z,66.98
2022-08-31T00:34:29.162Z,71.34
2022-08-31T00:37:30.601Z,66.42
2022-08-31T00:40:33.160Z,66.15
2022-08-31T00:43:47.918Z,66.18
2022-08-31T00:46:49.440Z,66.25
2022-08-31T00:49:52.514Z,69.39
2022-08-31T00:52:57.840Z,67.88
2022-08-31T00:55:59.548Z,67.10
2022-08-31T00:59:01.652Z,67.80
2022-08-31T01:02:04.450Z,67.35
2022-08-31T01:05:06.920Z,67.80
2022-08-31T01:08:08.953Z,67.41
2022-08-31T01:11:10.675Z,72.98
2022-08-31T01:14:12.606Z,73.31
2022-08-31T01:17:15.103Z,74.19
2022-08-31T01:20:31.542Z,79.79
2022-08-31T01:23:38.725Z,76.76
2022-08-31T01:26:40.728Z,77.11
2022-08-31T01:29:42.509Z,72.72
2022-08-31T01:32:43.965Z,71.59
2022-08-31T01:35:45.681Z,72.59
2022-08-31T01:38:52.878Z,76.15
2022-08-31T01:41:54.864Z,72.78
2022-08-31T01:44:56.338Z,72.19
2022-08-31T01:48:12.344Z,75.24
2022-08-31T01:51:17.398Z,76.38
2022-08-31T01:54:19.509Z,81.84
2022-08-31T01:57:21.807Z,85.59
2022-08-31T02:00:36.222Z,82.57
2022-08-31T02:03:37.719Z,83.67
2022-08-31T02:06:42.187Z,89.91
2022-08-31T02:09:43.623Z,90.93
2022-08-31T02:12:45.034Z,92.22
2022-08-31T02:15:46.580Z,89.60
2022-08-31T02:18:48.112Z,87.68
2022-08-31T02:21:49.539Z,88.95
2022-08-31T02:24:51.054Z,91.83
2022-08-31T02:27:52.481Z,91.08
2022-08-31T02:30:54.069Z,86.81
2022-08-31T02:33:55.564Z,88.01
2022-08-31T02:36:57.176Z,89.70
2022-08-31T02:39:59.277Z,89.74
2022-08-31T02:43:01.409Z,91.97
2022-08-31T02:46:03.317Z,94.12
2022-08-31T02:49:04.840Z,96.01
2022-08-31T02:52:06.387Z,100.00
2022-08-31T02:55:07.955Z,100.00
2022-08-31T02:58:11.169Z,100.00
2022-08-31T03:01:12.682Z,100.00
2022-08-31T03:04:14.288Z,100.00
2022-08-31T03:07:15.777Z,100.00
2022-08-31T03:10:21.735Z,100.00
2022-08-31T03:13:58.466Z,100.00
2022-08-31T03:17:00.435Z,100.00
2022-08-31T03:20:05.534Z,100.00
2022-08-31T03:23:07.047Z,100.00
2022-08-31T03:26:10.137Z,100.00
2022-08-31T03:29:13.312Z,100.00
2022-08-31T03:32:14.763Z,100.00
2022-08-31T03:35:18.009Z,100.00
2022-08-31T03:38:20.466Z,100.00
2022-08-31T03:41:24.986Z,100.00
2022-08-31T03:44:26.506Z,100.00
2022-08-31T03:47:28.362Z,100.00
2022-08-31T03:50:30.010Z,100.00
2022-08-31T03:53:31.621Z,100.00
2022-08-31T03:56:33.248Z,100.00
2022-08-31T03:59:34.828Z,100.00
2022-08-31T04:02:39.544Z,100.00
2022-08-31T04:05:44.225Z,100.00
2022-08-31T04:08:45.715Z,100.00
2022-08-31T04:11:47.129Z,100.00
2022-08-31T04:14:48.662Z,100.00
2022-08-31T04:17:55.820Z,100.00
2022-08-31T04:20:59.041Z,100.00
2022-08-31T04:24:01.594Z,100.00
2022-08-31T04:27:03.705Z,100.00
2022-08-31T04:30:07.633Z,100.00
2022-08-31T04:33:09.741Z,100.00
2022-08-31T04:36:15.114Z,100.00
2022-08-31T04:39:16.706Z,100.00
2022-08-31T04:42:18.157Z,100.00
2022-08-31T04:45:19.630Z,100.00
2022-08-31T04:48:21.098Z,100.00
2022-08-31T04:51:26.140Z,100.00
2022-08-31T04:54:27.660Z,100.00
2022-08-31T04:57:31.343Z,100.00
2022-08-31T05:00:32.802Z,100.00
2022-08-31T05:03:34.272Z,100.00
2022-08-31T05:06:39.358Z,100.00
2022-08-31T05:09:40.931Z,100.00
2022-08-31T05:12:44.337Z,100.00
2022-08-31T05:15:45.813Z,100.00
2022-08-31T05:18:49.294Z,100.00
2022-08-31T05:21:50.807Z,100.00
2022-08-31T05:24:52.311Z,100.00
2022-08-31T05:27:54.840Z,100.00
2022-08-31T05:30:57.851Z,100.00
2022-08-31T05:34:00.682Z,100.00
2022-08-31T05:37:02.339Z,100.00
2022-08-31T05:40:04.475Z,100.00
2022-08-31T05:43:06.107Z,100.00
2022-08-31T05:46:10.548Z,100.00
2022-08-31T05:49:12.173Z,100.00
2022-08-31T05:52:13.909Z,100.00
2022-08-31T05:55:16.317Z,100.00
2022-08-31T05:58:17.801Z,100.00
2022-08-31T06:01:23.970Z,100.00
2022-08-31T06:04:26.730Z,100.00
2022-08-31T06:07:28.606Z,100.00
2022-08-31T06:10:32.946Z,100.00
2022-08-31T06:13:34.349Z,100.00
2022-08-31T06:16:37.229Z,100.00
2022-08-31T06:19:39.162Z,100.00
2022-08-31T06:22:46.175Z,100.00
2022-08-31T06:25:47.629Z,100.00
2022-08-31T06:28:52.004Z,100.00
2022-08-31T06:31:53.757Z,100.00
2022-08-31T06:34:55.334Z,100.00
2022-08-31T06:37:56.859Z,100.00
2022-08-31T06:40:58.290Z,100.00
2022-08-31T06:44:00.778Z,100.00
2022-08-31T06:47:03.016Z,100.00
2022-08-31T06:50:05.036Z,100.00
2022-08-31T06:53:06.475Z,100.00
2022-08-31T06:56:16.505Z,100.00
2022-08-31T06:59:26.434Z,100.00
2022-08-31T07:02:29.840Z,100.00
2022-08-31T07:05:31.285Z,100.00
2022-08-31T07:08:32.842Z,100.00
2022-08-31T07:11:37.468Z,100.00
2022-08-31T07:14:40.511Z,100.00
2022-08-31T07:17:42.174Z,100.00
2022-08-31T07:20:43.642Z,100.00
2022-08-31T07:23:47.176Z,100.00
2022-08-31T07:26:54.406Z,100.00
2022-08-31T07:29:55.873Z,100.00
2022-08-31T07:32:57.307Z,100.00
2022-08-31T07:35:58.742Z,100.00
2022-08-31T07:39:18.944Z,100.00
2022-08-31T07:42:29.214Z,100.00
2022-08-31T07:45:34.465Z,100.00
2022-08-31T07:48:39.374Z,100.00
2022-08-31T07:51:50.180Z,100.00
2022-08-31T07:54:54.127Z,100.00
2022-08-31T07:57:56.768Z,100.00
2022-08-31T08:00:59.881Z,100.00
2022-08-31T08:04:02.304Z,100.00
2022-08-31T08:07:06.032Z,100.00
2022-08-31T08:10:14.004Z,100.00
2022-08-31T08:13:18.471Z,100.00
2022-08-31T08:16:20.863Z,100.00
2022-08-31T08:19:23.264Z,100.00
2022-08-31T08:22:41.903Z,100.00
2022-08-31T08:25:47.321Z,100.00
2022-08-31T08:28:50.253Z,100.00
2022-08-31T08:31:56.537Z,100.00
2022-08-31T08:34:58.438Z,100.00
2022-08-31T08:38:03.333Z,100.00
2022-08-31T08:41:14.810Z,100.00
2022-08-31T08:44:18.457Z,100.00
2022-08-31T08:47:24.775Z,100.00
2022-08-31T08:50:28.256Z,100.00
2022-08-31T08:53:32.125Z,100.00
2022-08-31T08:56:34.348Z,100.00
2022-08-31T08:59:35.913Z,100.00
2022-08-31T09:02:58.327Z,100.00
2022-08-31T09:06:09.667Z,100.00
2022-08-31T09:09:46.881Z,100.00
2022-08-31T09:13:14.408Z,100.00
2022-08-31T09:16:40.860Z,100.00
2022-08-31T09:20:00.340Z,100.00
2022-08-31T09:23:06.986Z,100.00
2022-08-31T09:26:11.158Z,100.00
2022-08-31T09:29:24.789Z,100.00
2022-08-31T09:32:31.365Z,100.00
2022-08-31T09:35:41.224Z,100.00
2022-08-31T09:38:46.914Z,100.00
2022-08-31T09:41:49.890Z,100.00
2022-08-31T09:44:51.505Z,100.00
2022-08-31T09:47:58.272Z,100.00
2022-08-31T09:51:02.864Z,100.00
2022-08-31T09:54:22.836Z,100.00
2022-08-31T09:57:50.474Z,100.00
2022-08-31T10:00:52.613Z,100.00
2022-08-31T10:04:12.147Z,100.00
2022-08-31T10:07:31.323Z,100.00
2022-08-31T10:10:37.631Z,100.00
2022-08-31T10:13:45.807Z,100.00
2022-08-31T10:16:53.177Z,100.00
2022-08-31T10:20:06.600Z,100.00
2022-08-31T10:23:28.134Z,100.00
2022-08-31T10:26:57.016Z,100.00
2022-08-31T10:30:18.253Z,100.00
2022-08-31T10:33:25.261Z,100.00
2022-08-31T10:36:33.112Z,100.00
2022-08-31T10:39:42.606Z,100.00
2022-08-31T10:43:09.299Z,100.00
2022-08-31T10:46:10.830Z,100.00
2022-08-31T10:49:12.311Z,100.00
2022-08-31T10:52:27.482Z,100.00
2022-08-31T10:55:46.793Z,100.00
2022-08-31T10:59:02.080Z,100.00
2022-08-31T11:02:31.277Z,100.00
2022-08-31T11:05:42.199Z,100.00
2022-08-31T11:09:08.273Z,100.00
2022-08-31T11:12:18.370Z,100.00
2022-08-31T11:15:25.912Z,100.00
2022-08-31T11:18:36.128Z,100.00
2022-08-31T11:21:51.002Z,100.00
2022-08-31T11:25:25.036Z,100.00
2022-08-31T11:28:35.743Z,100.00
2022-08-31T11:31:38.867Z,100.00
2022-08-31T11:34:51.337Z,100.00
2022-08-31T11:37:55.648Z,100.00
2022-08-31T11:41:02.770Z,100.00
2022-08-31T11:44:08.972Z,100.00
2022-08-31T11:47:28.650Z,100.00
2022-08-31T11:50:36.403Z,100.00
2022-08-31T11:53:44.362Z,100.00
2022-08-31T11:56:47.416Z,100.00
2022-08-31T11:59:50.498Z,100.00
2022-08-31T12:03:10.882Z,100.00
2022-08-31T12:06:25.088Z,100.00
2022-08-31T12:09:44.985Z,100.00
2022-08-31T12:13:09.326Z,100.00
2022-08-31T12:16:23.674Z,100.00
2022-08-31T12:19:48.865Z,100.00
2022-08-31T12:23:30.852Z,100.00
2022-08-31T12:26:48.812Z,100.00
2022-08-31T12:29:50.303Z,100.00
2022-08-31T12:32:56.804Z,100.00
2022-08-31T12:36:12.144Z,100.00
2022-08-31T12:39:21.849Z,100.00
2022-08-31T12:42:23.736Z,100.00
2022-08-31T12:45:55.061Z,100.00
2022-08-31T12:49:02.710Z,100.00
2022-08-31T12:52:16.230Z,100.00
2022-08-31T12:55:26.811Z,100.00
2022-08-31T12:58:43.503Z,100.00
2022-08-31T13:01:49.318Z,100.00
2022-08-31T13:04:51.305Z,100.00
2022-08-31T13:07:53.536Z,100.00
2022-08-31T13:10:55.049Z,100.00
2022-08-31T13:14:08.512Z,100.00
2022-08-31T13:17:17.873Z,100.00
2022-08-31T13:20:20.421Z,100.00
2022-08-31T13:23:30.009Z,100.00
2022-08-31T13:26:35.880Z,100.00
2022-08-31T13:29:45.110Z,100.00
2022-08-31T13:32:51.052Z,100.00
2022-08-31T13:36:03.753Z,100.00
2022-08-31T13:39:12.845Z,100.00
2022-08-31T13:42:41.262Z,100.00
2022-08-31T13:45:58.548Z,100.00
2022-08-31T13:49:03.225Z,100.00
2022-08-31T13:52:07.762Z,100.00
2022-08-31T13:55:12.877Z,100.00
2022-08-31T13:58:31.463Z,100.00
2022-08-31T14:01:33.858Z,100.00
2022-08-31T14:04:49.508Z,100.00
2022-08-31T14:07:55.623Z,100.00
2022-08-31T14:10:57.152Z,100.00
2022-08-31T14:14:11.343Z,100.00
2022-08-31T14:17:17.700Z,100.00
2022-08-31T14:21:16.902Z,100.00
2022-08-31T14:24:12.298Z,100.00
2022-08-31T14:27:15.205Z,100.00
2022-08-31T14:30:16.755Z,100.00
2022-08-31T14:33:19.752Z,100.00
2022-08-31T14:36:23.688Z,100.00
2022-08-31T14:39:32.082Z,100.00
2022-08-31T14:42:37.353Z,100.00
2022-08-31T14:45:40.015Z,100.00
2022-08-31T14:48:44.115Z,100.00
2022-08-31T14:51:46.276Z,100.00
2022-08-31T14:54:48.070Z,100.00
2022-08-31T14:57:55.543Z,100.00
2022-08-31T15:01:00.260Z,100.00
2022-08-31T15:04:04.240Z,100.00
2022-08-31T15:07:09.526Z,100.00
2022-08-31T15:10:12.968Z,100.00
2022-08-31T15:13:14.578Z,100.00
2022-08-31T15:16:16.854Z,100.00
2022-08-31T15:19:19.004Z,100.00
2022-08-31T15:22:21.574Z,94.85
2022-08-31T15:25:25.853Z,100.00
2022-08-31T15:28:31.565Z,100.00
2022-08-31T15:31:33.074Z,100.00
2022-08-31T15:34:34.869Z,100.00
2022-08-31T15:37:36.379Z,100.00
2022-08-31T15:40:39.248Z,100.00
2022-08-31T15:43:44.310Z,100.00
2022-08-31T15:47:05.143Z,98.22
2022-08-31T15:50:07.733Z,97.65
2022-08-31T15:53:10.684Z,100.00
2022-08-31T15:56:12.243Z,99.06
2022-08-31T15:59:13.794Z,99.46
2022-08-31T16:02:20.281Z,100.00
2022-08-31T16:05:23.826Z,100.00
2022-08-31T16:08:27.865Z,100.00
2022-08-31T16:11:31.139Z,100.00
2022-08-31T16:14:33.401Z,100.00
2022-08-31T16:17:34.900Z,100.00
2022-08-31T16:20:37.049Z,100.00
2022-08-31T16:23:39.628Z,100.00
2022-08-31T16:26:45.946Z,100.00
2022-08-31T16:29:47.532Z,100.00
2022-08-31T16:32:52.186Z,100.00
2022-08-31T16:35:53.943Z,100.00
2022-08-31T16:38:56.628Z,100.00
2022-08-31T16:41:58.158Z,100.00
2022-08-31T16:45:02.331Z,100.00
2022-08-31T16:48:22.770Z,100.00
2022-08-31T16:51:24.382Z,100.00
2022-08-31T16:54:28.437Z,100.00
2022-08-31T16:57:31.795Z,100.00
2022-08-31T17:00:37.368Z,100.00
2022-08-31T17:03:51.992Z,100.00
2022-08-31T17:06:54.337Z,100.00
2022-08-31T17:09:58.980Z,100.00
2022-08-31T17:13:00.476Z,100.00
2022-08-31T17:16:02.632Z,100.00
2022-08-31T17:19:11.369Z,100.00
2022-08-31T17:22:23.375Z,99.66
2022-08-31T17:25:26.228Z,100.00
2022-08-31T17:28:27.679Z,100.00
2022-08-31T17:31:32.965Z,100.00
2022-08-31T17:34:36.727Z,100.00
2022-08-31T17:37:38.501Z,100.00
2022-08-31T17:40:40.134Z,100.00
2022-08-31T17:43:42.119Z,100.00
2022-08-31T17:46:47.137Z,100.00
2022-08-31T17:49:50.571Z,100.00
2022-08-31T17:52:54.002Z,100.00
2022-08-31T17:55:55.829Z,100.00
2022-08-31T17:58:57.350Z,100.00
2022-08-31T18:02:02.639Z,100.00
2022-08-31T18:05:11.583Z,100.00
2022-08-31T18:08:14.670Z,100.00
2022-08-31T18:11:16.242Z,100.00
2022-08-31T18:14:23.486Z,100.00
2022-08-31T18:17:26.446Z,100.00
2022-08-31T18:20:28.394Z,100.00
2022-08-31T18:23:29.832Z,100.00
2022-08-31T18:26:34.800Z,100.00
2022-08-31T18:29:37.917Z,100.00
2022-08-31T18:32:47.287Z,100.00
2022-08-31T18:35:50.617Z,100.00
2022-08-31T18:38:55.196Z,100.00
2022-08-31T18:42:15.578Z,100.00
2022-08-31T18:45:19.219Z,100.00
2022-08-31T18:48:35.125Z,100.00
2022-08-31T18:51:36.865Z,100.00
2022-08-31T18:54:38.420Z,100.00
2022-08-31T18:57:48.770Z,100.00
2022-08-31T19:00:57.262Z,100.00
2022-08-31T19:04:00.922Z,100.00
2022-08-31T19:07:03.656Z,100.00
2022-08-31T19:10:12.127Z,100.00
2022-08-31T19:13:15.471Z,100.00
2022-08-31T19:16:23.353Z,100.00
2022-08-31T19:19:25.416Z,100.00
2022-08-31T19:22:27.925Z,100.00
2022-08-31T19:25:31.818Z,100.00
2022-08-31T19:28:33.361Z,100.00
2022-08-31T19:31:38.496Z,100.00
2022-08-31T19:34:43.107Z,100.00
2022-08-31T19:37:44.635Z,100.00
2022-08-31T19:40:46.469Z,100.00
2022-08-31T19:44:01.925Z,100.00
2022-08-31T19:47:08.564Z,100.00
2022-08-31T19:50:26.343Z,100.00
2022-08-31T19:53:28.232Z,100.00
2022-08-31T19:56:31.027Z,100.00
2022-08-31T19:59:32.557Z,100.00
2022-08-31T20:02:36.167Z,100.00
2022-08-31T20:05:41.748Z,100.00
2022-08-31T20:08:44.257Z,100.00
2022-08-31T20:11:49.296Z,100.00
2022-08-31T20:14:51.273Z,100.00
2022-08-31T20:17:57.114Z,100.00
2022-08-31T20:21:01.026Z,100.00
2022-08-31T20:24:06.242Z,100.00
2022-08-31T20:27:10.446Z,100.00
2022-08-31T20:30:13.603Z,100.00
2022-08-31T20:33:15.772Z,100.00
2022-08-31T20:36:20.495Z,100.00
2022-08-31T20:39:25.123Z,100.00
2022-08-31T20:42:27.328Z,100.00
2022-08-31T20:45:28.790Z,100.00
2022-08-31T20:48:49.076Z,100.00
2022-08-31T20:51:51.702Z,100.00
2022-08-31T20:55:01.465Z,100.00
2022-08-31T20:58:05.522Z,100.00
2022-08-31T21:01:07.747Z,100.00
2022-08-31T21:04:09.369Z,100.00
2022-08-31T21:07:12.278Z,100.00
2022-08-31T21:10:14.361Z,100.00
2022-08-31T21:13:16.736Z,100.00
2022-08-31T21:16:19.491Z,100.00
2022-08-31T21:19:22.751Z,100.00
2022-08-31T21:22:25.788Z,100.00
2022-08-31T21:25:27.364Z,100.00
2022-08-31T21:28:29.604Z,100.00
2022-08-31T21:31:31.228Z,100.00
2022-08-31T21:34:33.786Z,100.00
2022-08-31T21:37:35.402Z,100.00
2022-08-31T21:40:37.053Z,100.00
2022-08-31T21:43:39.808Z,100.00
2022-08-31T21:46:41.588Z,100.00
2022-08-31T21:49:44.528Z,100.00
2022-08-31T21:52:45.972Z,100.00
2022-08-31T21:55:47.421Z,100.00
2022-08-31T21:58:50.001Z,100.00
2022-08-31T22:01:59.008Z,100.00
2022-08-31T22:05:00.689Z,100.00
2022-08-31T22:08:02.465Z,100.00
2022-08-31T22:11:08.868Z,100.00
2022-08-31T22:14:12.236Z,100.00
2022-08-31T22:17:14.675Z,100.00
2022-08-31T22:20:17.662Z,100.00
2022-08-31T22:23:20.141Z,100.00
2022-08-31T22:26:24.414Z,100.00
2022-08-31T22:29:29.242Z,100.00
2022-08-31T22:32:30.652Z,100.00
2022-08-31T22:35:37.823Z,100.00
2022-08-31T22:38:39.764Z,100.00
2022-08-31T22:41:41.654Z,100.00
2022-08-31T22:44:43.623Z,100.00
2022-08-31T22:47:49.774Z,100.00
2022-08-31T22:50:51.780Z,100.00
2022-08-31T22:53:53.284Z,100.00
2022-08-31T22:56:55.202Z,100.00
2022-08-31T22:59:56.699Z,100.00
2022-08-31T23:02:59.242Z,100.00
2022-08-31T23:06:01.381Z,100.00
2022-08-31T23:09:06.873Z,100.00
2022-08-31T23:12:08.716Z,100.00
2022-08-31T23:15:12.804Z,100.00
2022-08-31T23:18:14.292Z,100.00
2022-08-31T23:21:17.917Z,100.00
2022-08-31T23:24:23.654Z,100.00
2022-08-31T23:27:25.338Z,100.00
2022-08-31T23:30:27.195Z,100.00
2022-08-31T23:33:29.345Z,100.00
2022-08-31T23:36:31.821Z,100.00
2022-08-31T23:39:34.702Z,100.00
2022-08-31T23:42:41.032Z,100.00
2022-08-31T23:45:42.679Z,100.00
2022-08-31T23:48:44.103Z,100.00
2022-08-31T23:51:46.194Z,100.00
2022-08-31T23:54:49.825Z,100.00
2022-08-31T23:57:51.698Z,100.00
